createdAt,value
2022-08-19T00:01:04.642Z,10.32
2022-08-19T00:03:32.824Z,9.15
2022-08-19T00:06:01.074Z,8.90
2022-08-19T00:08:29.580Z,6.10
2022-08-19T00:10:57.757Z,6.63
2022-08-19T00:13:26.060Z,5.57
2022-08-19T00:15:54.256Z,7.95
2022-08-19T00:18:22.516Z,12.27
2022-08-19T00:20:50.686Z,14.20
2022-08-19T00:23:18.881Z,6.25
2022-08-19T00:25:48.657Z,4.88
2022-08-19T00:28:17.205Z,9.52
2022-08-19T00:30:45.519Z,7.93
2022-08-19T00:33:15.017Z,3.45
2022-08-19T00:36:01.642Z,11.07
2022-08-19T00:38:37.424Z,5.13
2022-08-19T00:41:07.425Z,6.82
2022-08-19T00:43:36.203Z,4.07
2022-08-19T00:46:22.712Z,5.82
2022-08-19T00:48:50.917Z,6.53
2022-08-19T00:51:19.414Z,7.47
2022-08-19T00:54:28.805Z,6.35
2022-08-19T01:00:01.186Z,8.38
2022-08-19T01:02:32.264Z,6.65
2022-08-19T01:05:03.828Z,6.15
2022-08-19T01:07:37.664Z,3.60
2022-08-19T01:10:14.234Z,6.43
2022-08-19T01:12:42.631Z,5.75
2022-08-19T01:15:13.453Z,6.28
2022-08-19T01:17:42.663Z,6.65
2022-08-19T01:20:15.183Z,5.88
2022-08-19T01:23:05.836Z,6.68
2022-08-19T01:25:42.656Z,4.40
2022-08-19T01:28:18.992Z,6.93
2022-08-19T01:31:27.342Z,3.33
2022-08-19T01:34:16.570Z,2.83
2022-08-19T01:36:48.433Z,3.88
2022-08-19T01:39:35.647Z,3.67
2022-08-19T01:42:30.097Z,10.93
2022-08-19T01:45:18.694Z,6.93
2022-08-19T01:48:01.397Z,5.82
2022-08-19T01:50:51.140Z,6.85
2022-08-19T01:53:19.487Z,10.80
2022-08-19T01:56:07.647Z,5.15
2022-08-19T01:58:40.537Z,9.90
2022-08-19T02:01:09.749Z,6.93
2022-08-19T02:04:14.775Z,5.93
2022-08-19T02:07:01.770Z,6.07
2022-08-19T02:09:30.038Z,6.07
2022-08-19T02:11:58.390Z,6.88
2022-08-19T02:14:26.669Z,5.53
2022-08-19T02:16:54.937Z,5.20
2022-08-19T02:19:23.656Z,4.90
2022-08-19T02:21:51.898Z,4.50
2022-08-19T02:24:20.083Z,6.82
2022-08-19T02:26:48.390Z,6.70
2022-08-19T02:29:16.730Z,7.63
2022-08-19T02:31:45.007Z,2.70
2022-08-19T02:34:13.405Z,7.22
2022-08-19T02:36:42.410Z,4.72
2022-08-19T02:39:11.807Z,5.15
2022-08-19T02:42:00.798Z,2.30
2022-08-19T02:44:31.949Z,8.18
2022-08-19T02:47:00.440Z,2.42
2022-08-19T02:49:28.953Z,8.88
2022-08-19T02:51:57.267Z,5.78
2022-08-19T02:54:25.434Z,4.07
2022-08-19T02:56:53.831Z,6.35
2022-08-19T02:59:23.023Z,7.97
2022-08-19T03:01:51.674Z,4.18
2022-08-19T03:04:20.724Z,7.68
2022-08-19T03:06:49.626Z,2.50
2022-08-19T03:09:39.109Z,7.88
2022-08-19T03:12:07.660Z,4.05
2022-08-19T03:15:12.570Z,5.88
2022-08-19T03:17:59.439Z,5.65
2022-08-19T03:20:45.885Z,4.65
2022-08-19T03:23:15.135Z,3.88
2022-08-19T03:25:46.991Z,6.20
2022-08-19T03:28:26.242Z,3.28
2022-08-19T03:31:04.844Z,8.73
2022-08-19T03:34:13.029Z,2.03
2022-08-19T03:36:41.680Z,3.17
2022-08-19T03:39:30.238Z,5.45
2022-08-19T03:42:33.187Z,3.70
2022-08-19T03:45:06.284Z,4.45
2022-08-19T03:50:20.610Z,5.22
2022-08-19T03:52:52.785Z,9.75
2022-08-19T03:55:21.147Z,5.25
2022-08-19T03:57:49.889Z,8.93
2022-08-19T04:00:18.533Z,5.43
2022-08-19T04:03:05.003Z,6.07
2022-08-19T04:05:52.291Z,4.35
2022-08-19T04:11:32.488Z,3.42
2022-08-19T04:14:15.343Z,5.20
2022-08-19T04:16:45.760Z,11.15
2022-08-19T04:19:33.517Z,9.15
2022-08-19T04:22:02.083Z,4.43
2022-08-19T04:24:30.998Z,7.55
2022-08-19T04:27:55.549Z,5.15
2022-08-19T04:30:23.800Z,7.55
2022-08-19T04:32:52.108Z,8.65
2022-08-19T04:35:24.446Z,6.35
2022-08-19T04:37:52.970Z,6.97
2022-08-19T04:40:39.981Z,6.93
2022-08-19T04:43:27.057Z,4.30
2022-08-19T04:45:56.857Z,7.88
2022-08-19T04:48:28.939Z,6.32
2022-08-19T04:51:15.344Z,4.88
2022-08-19T04:53:43.482Z,3.80
2022-08-19T04:56:14.665Z,9.52
2022-08-19T04:58:45.074Z,4.22
2022-08-19T05:01:15.040Z,5.30
2022-08-19T05:04:05.369Z,5.45
2022-08-19T05:06:35.173Z,5.15
2022-08-19T05:09:06.024Z,7.80
2022-08-19T05:11:54.735Z,8.38
2022-08-19T05:14:22.983Z,5.88
2022-08-19T05:17:26.669Z,2.97
2022-08-19T05:20:14.710Z,4.55
2022-08-19T05:22:44.422Z,5.93
2022-08-19T05:25:16.411Z,7.22
2022-08-19T05:27:44.381Z,6.75
2022-08-19T05:30:13.511Z,3.78
2022-08-19T05:32:42.074Z,10.30
2022-08-19T05:35:10.787Z,5.28
2022-08-19T05:37:58.907Z,5.63
2022-08-19T05:40:50.638Z,5.57
2022-08-19T05:43:18.677Z,5.50
2022-08-19T05:45:47.065Z,7.93
2022-08-19T05:48:15.643Z,7.53
2022-08-19T05:50:43.853Z,6.85
2022-08-19T05:53:11.896Z,7.18
2022-08-19T05:55:40.221Z,4.80
2022-08-19T05:58:10.857Z,2.92
2022-08-19T06:00:39.480Z,4.18
2022-08-19T06:03:11.829Z,5.88
2022-08-19T06:05:51.743Z,5.57
2022-08-19T06:08:33.584Z,5.32
2022-08-19T06:11:37.735Z,7.70
2022-08-19T06:14:19.159Z,4.65
2022-08-19T06:16:47.388Z,4.75
2022-08-19T06:19:18.074Z,6.00
2022-08-19T06:21:48.960Z,7.35
2022-08-19T06:24:20.780Z,6.18
2022-08-19T06:26:50.219Z,7.97
2022-08-19T06:29:23.553Z,7.72
2022-08-19T06:31:55.706Z,6.50
2022-08-19T06:34:24.562Z,7.53
2022-08-19T06:36:53.695Z,9.13
2022-08-19T06:39:25.463Z,7.28
2022-08-19T06:41:59.193Z,7.50
2022-08-19T06:44:38.440Z,5.53
2022-08-19T06:47:23.900Z,8.23
2022-08-19T06:50:05.537Z,8.60
2022-08-19T06:52:36.841Z,8.30
2022-08-19T06:55:07.203Z,4.95
2022-08-19T06:57:35.776Z,10.02
2022-08-19T07:00:09.717Z,6.20
2022-08-19T07:02:48.175Z,6.57
2022-08-19T07:05:21.594Z,7.50
2022-08-19T07:07:49.713Z,8.60
2022-08-19T07:10:20.399Z,9.90
2022-08-19T07:12:50.261Z,8.43
2022-08-19T07:15:18.847Z,9.77
2022-08-19T07:17:47.959Z,16.05
2022-08-19T07:20:21.231Z,16.30
2022-08-19T07:22:49.418Z,25.13
2022-08-19T07:25:19.751Z,17.52
2022-08-19T07:27:54.396Z,12.98
2022-08-19T07:30:26.233Z,9.80
2022-08-19T07:32:54.768Z,13.30
2022-08-19T07:35:23.127Z,8.38
2022-08-19T07:37:51.271Z,5.22
2022-08-19T07:40:19.227Z,7.80
2022-08-19T07:42:47.279Z,7.75
2022-08-19T07:48:02.412Z,5.00
2022-08-19T07:53:39.653Z,5.68
2022-08-19T07:56:08.244Z,11.07
2022-08-19T07:58:39.341Z,8.07
2022-08-19T08:01:09.655Z,4.43
2022-08-19T08:03:56.971Z,5.25
2022-08-19T08:06:44.289Z,8.85
2022-08-19T08:09:16.575Z,4.75
2022-08-19T08:11:50.181Z,7.43
2022-08-19T08:14:34.980Z,6.57
2022-08-19T08:17:10.891Z,9.23
2022-08-19T08:19:40.228Z,8.77
2022-08-19T08:22:09.242Z,6.75
2022-08-19T08:24:37.290Z,3.75
2022-08-19T08:27:11.160Z,6.80
2022-08-19T08:29:39.821Z,6.65
2022-08-19T08:32:14.145Z,5.03
2022-08-19T08:34:43.856Z,5.05
2022-08-19T08:37:11.860Z,4.90
2022-08-19T08:39:39.941Z,7.38
2022-08-19T08:42:18.065Z,4.07
2022-08-19T08:45:00.854Z,4.63
2022-08-19T08:50:10.466Z,7.35
2022-08-19T08:52:43.829Z,6.53
2022-08-19T08:55:16.303Z,8.30
2022-08-19T08:57:50.361Z,11.63
2022-08-19T09:00:30.738Z,6.40
2022-08-19T09:03:06.798Z,8.30
2022-08-19T09:06:01.561Z,9.95
2022-08-19T09:09:11.786Z,8.20
2022-08-19T09:11:45.821Z,10.57
2022-08-19T09:14:40.771Z,8.20
2022-08-19T09:17:36.427Z,5.95
2022-08-19T09:20:12.592Z,24.75
2022-08-19T09:22:46.029Z,13.02
2022-08-19T09:25:24.808Z,8.77
2022-08-19T09:27:57.728Z,7.68
2022-08-19T09:30:40.455Z,7.07
2022-08-19T09:33:08.677Z,5.20
2022-08-19T09:35:49.884Z,7.95
2022-08-19T09:38:22.675Z,7.55
2022-08-19T09:40:51.118Z,6.80
2022-08-19T09:43:33.451Z,7.18
2022-08-19T09:46:10.381Z,8.45
2022-08-19T09:48:38.943Z,5.32
2022-08-19T09:51:11.973Z,7.88
2022-08-19T09:53:40.488Z,7.65
2022-08-19T09:56:09.419Z,7.07
2022-08-19T09:58:38.608Z,6.32
2022-08-19T10:01:08.160Z,5.82
2022-08-19T10:03:37.676Z,6.57
2022-08-19T10:06:14.919Z,13.18
2022-08-19T10:08:50.283Z,7.55
2022-08-19T10:11:28.047Z,11.13
2022-08-19T10:14:07.087Z,8.40
2022-08-19T10:16:39.692Z,8.07
2022-08-19T10:19:08.037Z,12.05
2022-08-19T10:21:37.100Z,5.63
2022-08-19T10:24:06.531Z,7.25
2022-08-19T10:26:38.299Z,7.10
2022-08-19T10:29:09.187Z,9.77
2022-08-19T10:32:02.369Z,9.25
2022-08-19T10:34:28.365Z,7.22
2022-08-19T10:37:00.798Z,9.38
2022-08-19T10:39:43.410Z,7.03
2022-08-19T10:42:12.872Z,7.57
2022-08-19T10:44:59.705Z,6.30
2022-08-19T10:47:31.828Z,8.25
2022-08-19T10:50:18.457Z,9.15
2022-08-19T10:52:50.767Z,6.78
2022-08-19T10:55:40.812Z,10.75
2022-08-19T10:58:18.941Z,8.55
2022-08-19T11:00:56.173Z,6.40
2022-08-19T11:03:26.174Z,7.55
2022-08-19T11:06:07.737Z,7.10
2022-08-19T11:08:38.834Z,6.72
2022-08-19T11:11:08.278Z,9.63
2022-08-19T11:13:40.690Z,9.73
2022-08-19T11:16:12.029Z,8.18
2022-08-19T11:18:46.340Z,18.92
2022-08-19T11:21:20.591Z,8.20
2022-08-19T11:23:50.486Z,6.40
2022-08-19T11:26:19.502Z,6.25
2022-08-19T11:28:47.989Z,9.05
2022-08-19T11:31:21.878Z,5.10
2022-08-19T11:33:52.668Z,6.68
2022-08-19T11:36:22.376Z,5.00
2022-08-19T11:38:51.461Z,5.43
2022-08-19T11:41:24.427Z,7.13
2022-08-19T11:43:56.399Z,9.45
2022-08-19T11:46:26.836Z,6.15
2022-08-19T11:48:55.637Z,8.20
2022-08-19T11:51:28.225Z,13.05
2022-08-19T11:53:58.165Z,9.00
2022-08-19T11:56:27.789Z,10.93
2022-08-19T11:58:57.992Z,6.60
2022-08-19T12:01:27.630Z,5.28
2022-08-19T12:03:57.108Z,6.15
2022-08-19T12:06:32.932Z,7.68
2022-08-19T12:09:04.607Z,6.80
2022-08-19T12:11:34.717Z,6.22
2022-08-19T12:14:03.099Z,7.43
2022-08-19T12:16:33.934Z,7.00
2022-08-19T12:19:05.097Z,7.53
2022-08-19T12:21:36.204Z,6.22
2022-08-19T12:26:33.673Z,7.30
2022-08-19T12:29:05.122Z,6.57
2022-08-19T12:31:33.395Z,7.07
2022-08-19T12:34:03.625Z,6.60
2022-08-19T12:36:31.642Z,7.93
2022-08-19T12:39:01.080Z,8.25
2022-08-19T12:41:29.252Z,6.05
2022-08-19T12:43:57.285Z,8.98
2022-08-19T12:46:26.214Z,6.13
2022-08-19T12:48:56.097Z,6.28
2022-08-19T12:51:24.303Z,7.25
2022-08-19T12:53:52.297Z,5.95
2022-08-19T12:59:06.189Z,9.18
2022-08-19T13:01:53.278Z,6.68
2022-08-19T13:04:21.344Z,8.95
2022-08-19T13:06:49.381Z,9.13
2022-08-19T13:09:17.426Z,9.20
2022-08-19T13:11:46.375Z,7.10
2022-08-19T13:14:14.460Z,6.13
2022-08-19T13:16:42.603Z,13.20
2022-08-19T13:19:11.935Z,7.47
2022-08-19T13:21:40.193Z,6.13
2022-08-19T13:26:55.994Z,10.55
2022-08-19T13:29:43.040Z,7.97
2022-08-19T13:32:29.539Z,12.40
2022-08-19T13:34:57.969Z,4.18
2022-08-19T13:37:44.102Z,5.80
2022-08-19T13:40:25.250Z,4.53
2022-08-19T13:43:17.823Z,6.22
2022-08-19T13:45:57.626Z,8.93
2022-08-19T13:48:28.143Z,8.00
2022-08-19T13:50:57.280Z,6.68
2022-08-19T13:53:47.872Z,6.47
2022-08-19T13:56:20.184Z,7.95
2022-08-19T13:58:51.058Z,6.90
2022-08-19T14:01:24.577Z,7.93
2022-08-19T14:03:53.225Z,8.13
2022-08-19T14:06:22.692Z,6.90
2022-08-19T14:08:51.215Z,6.78
2022-08-19T14:11:19.226Z,11.23
2022-08-19T14:13:47.414Z,6.00
2022-08-19T14:16:15.961Z,9.68
2022-08-19T14:18:44.876Z,7.30
2022-08-19T14:21:18.969Z,6.90
2022-08-19T14:23:47.701Z,5.10
2022-08-19T14:26:18.362Z,9.95
2022-08-19T14:31:17.861Z,5.93
2022-08-19T14:33:48.199Z,7.65
2022-08-19T14:36:16.551Z,7.65
2022-08-19T14:38:44.875Z,5.60
2022-08-19T14:41:24.466Z,7.75
2022-08-19T14:43:54.455Z,8.05
2022-08-19T14:46:25.216Z,8.68
2022-08-19T14:48:56.770Z,11.02
2022-08-19T14:51:27.724Z,8.15
2022-08-19T14:53:56.928Z,7.32
2022-08-19T14:56:28.437Z,9.35
2022-08-19T14:59:15.193Z,14.75
2022-08-19T15:01:43.399Z,8.13
2022-08-19T15:04:33.676Z,7.63
2022-08-19T15:07:20.859Z,8.07
2022-08-19T15:09:51.976Z,10.13
2022-08-19T15:12:22.154Z,7.07
2022-08-19T15:14:56.187Z,6.38
2022-08-19T15:17:32.337Z,8.73
2022-08-19T15:20:20.005Z,6.32
2022-08-19T15:22:48.762Z,5.97
2022-08-19T15:25:19.914Z,7.95
2022-08-19T15:27:49.021Z,7.78
2022-08-19T15:30:29.316Z,7.88
2022-08-19T15:32:59.377Z,5.82
2022-08-19T15:35:27.611Z,8.68
2022-08-19T15:37:56.961Z,6.45
2022-08-19T15:40:26.727Z,8.00
2022-08-19T15:42:55.481Z,5.00
2022-08-19T15:45:23.611Z,9.27
2022-08-19T15:48:10.115Z,8.38
2022-08-19T15:50:39.724Z,7.78
2022-08-19T15:53:11.746Z,8.55
2022-08-19T15:55:45.878Z,7.45
2022-08-19T15:58:34.194Z,8.52
2022-08-19T16:01:26.989Z,9.65
2022-08-19T16:04:16.094Z,8.25
2022-08-19T16:06:50.858Z,9.68
2022-08-19T16:09:26.461Z,9.45
2022-08-19T16:12:04.107Z,8.05
2022-08-19T16:14:38.378Z,10.07
2022-08-19T16:17:06.654Z,6.60
2022-08-19T16:19:53.576Z,9.77
2022-08-19T16:22:22.569Z,12.68
2022-08-19T16:24:50.635Z,9.95
2022-08-19T16:27:18.630Z,7.30
2022-08-19T16:30:06.144Z,9.45
2022-08-19T16:32:34.389Z,11.70
2022-08-19T16:35:06.748Z,9.38
2022-08-19T16:37:34.880Z,7.70
2022-08-19T16:40:03.432Z,8.00
2022-08-19T16:42:31.415Z,10.18
2022-08-19T16:44:59.382Z,12.05
2022-08-19T16:47:27.319Z,7.35
2022-08-19T16:49:55.648Z,10.57
2022-08-19T16:55:12.251Z,8.30
2022-08-19T16:57:40.570Z,7.93
2022-08-19T17:00:10.909Z,6.93
2022-08-19T17:02:39.782Z,10.90
2022-08-19T17:05:09.084Z,12.48
2022-08-19T17:07:37.108Z,8.82
2022-08-19T17:10:06.132Z,8.80
2022-08-19T17:12:34.918Z,7.45
2022-08-19T17:15:05.103Z,12.38
2022-08-19T17:17:33.211Z,12.93
2022-08-19T17:20:03.568Z,9.98
2022-08-19T17:22:31.832Z,8.68
2022-08-19T17:24:59.864Z,9.68
2022-08-19T17:27:32.366Z,10.35
2022-08-19T17:30:03.077Z,9.02
2022-08-19T17:32:34.528Z,7.25
2022-08-19T17:37:32.194Z,8.45
2022-08-19T17:40:01.627Z,7.55
2022-08-19T17:42:29.873Z,11.05
2022-08-19T17:45:01.081Z,13.00
2022-08-19T17:47:31.751Z,9.75
2022-08-19T17:49:59.780Z,13.23
2022-08-19T17:52:46.459Z,16.17
2022-08-19T17:55:14.800Z,12.32
2022-08-19T17:58:05.489Z,13.30
2022-08-19T18:03:21.630Z,6.80
2022-08-19T18:05:50.694Z,9.52
2022-08-19T18:08:18.685Z,10.85
2022-08-19T18:10:46.729Z,7.63
2022-08-19T18:13:17.722Z,7.70
2022-08-19T18:18:15.346Z,8.80
2022-08-19T18:20:44.745Z,7.78
2022-08-19T18:23:44.009Z,16.08
2022-08-19T18:26:02.220Z,9.60
2022-08-19T18:28:30.979Z,12.82
2022-08-19T18:30:59.496Z,8.25
2022-08-19T18:33:27.822Z,11.98
2022-08-19T18:35:58.272Z,12.00
2022-08-19T18:38:44.651Z,9.27
2022-08-19T18:41:31.175Z,5.32
2022-08-19T18:44:17.716Z,12.60
2022-08-19T18:47:04.140Z,16.13
2022-08-19T18:49:34.023Z,8.55
2022-08-19T18:52:03.852Z,10.13
2022-08-19T18:54:32.844Z,12.27
2022-08-19T18:57:00.897Z,9.77
2022-08-19T18:59:31.589Z,10.25
2022-08-19T19:02:00.820Z,11.77
2022-08-19T19:04:33.958Z,12.88
2022-08-19T19:07:20.753Z,8.85
2022-08-19T19:09:51.722Z,13.48
2022-08-19T19:12:20.399Z,12.00
2022-08-19T19:14:49.733Z,8.30
2022-08-19T19:17:18.919Z,9.82
2022-08-19T19:19:46.934Z,16.67
2022-08-19T19:22:19.462Z,11.65
2022-08-19T19:24:48.008Z,13.02
2022-08-19T19:27:18.863Z,10.85
2022-08-19T19:29:51.749Z,17.83
2022-08-19T19:32:28.501Z,14.60
2022-08-19T19:34:56.804Z,9.18
2022-08-19T19:37:24.863Z,15.30
2022-08-19T19:39:52.853Z,16.50
2022-08-19T19:42:22.972Z,16.00
2022-08-19T19:44:53.958Z,18.50
2022-08-19T19:47:28.293Z,12.00
2022-08-19T19:50:14.287Z,11.18
2022-08-19T19:52:46.006Z,15.13
2022-08-19T19:55:32.831Z,12.25
2022-08-19T19:58:00.899Z,19.52
2022-08-19T20:00:30.172Z,14.48
2022-08-19T20:02:58.299Z,14.63
2022-08-19T20:05:26.750Z,14.02
2022-08-19T20:08:14.491Z,11.70
2022-08-19T20:10:43.737Z,16.10
2022-08-19T20:13:12.612Z,9.98
2022-08-19T20:15:43.623Z,10.48
2022-08-19T20:18:14.834Z,14.52
2022-08-19T20:20:44.099Z,15.70
2022-08-19T20:23:30.677Z,9.57
2022-08-19T20:25:58.815Z,13.73
2022-08-19T20:28:28.410Z,15.20
2022-08-19T20:30:56.472Z,12.50
2022-08-19T20:33:25.309Z,9.07
2022-08-19T20:35:53.380Z,10.02
2022-08-19T20:38:21.454Z,15.27
2022-08-19T20:40:49.511Z,19.20
2022-08-19T20:43:17.654Z,11.77
2022-08-19T20:45:45.709Z,15.80
2022-08-19T20:48:13.920Z,13.48
2022-08-19T20:50:41.974Z,17.35
2022-08-19T20:53:28.363Z,16.73
2022-08-19T20:55:59.900Z,14.93
2022-08-19T20:58:53.489Z,16.38
2022-08-19T21:01:23.090Z,14.07
2022-08-19T21:03:52.472Z,17.45
2022-08-19T21:06:23.077Z,13.35
2022-08-19T21:08:51.305Z,13.27
2022-08-19T21:11:21.044Z,18.13
2022-08-19T21:13:49.296Z,12.38
2022-08-19T21:16:17.563Z,15.73
2022-08-19T21:19:04.326Z,17.27
2022-08-19T21:21:33.490Z,14.82
2022-08-19T21:24:01.987Z,11.23
2022-08-19T21:26:30.093Z,11.40
2022-08-19T21:28:58.352Z,15.13
2022-08-19T21:31:26.612Z,13.57
2022-08-19T21:33:54.812Z,8.27
2022-08-19T21:36:23.384Z,15.50
2022-08-19T21:38:51.701Z,21.80
2022-08-19T21:41:19.755Z,21.83
2022-08-19T21:44:06.551Z,13.15
2022-08-19T21:46:35.010Z,13.93
2022-08-19T21:49:03.392Z,14.45
2022-08-19T21:51:32.228Z,16.90
2022-08-19T21:54:00.685Z,16.20
2022-08-19T21:56:47.658Z,16.63
2022-08-19T21:59:17.179Z,16.95
2022-08-19T22:01:50.486Z,13.23
2022-08-19T22:04:22.576Z,15.50
2022-08-19T22:06:50.887Z,16.88
2022-08-19T22:09:19.091Z,14.70
2022-08-19T22:12:20.902Z,10.75
2022-08-19T22:17:37.034Z,13.18
2022-08-19T22:20:27.046Z,14.40
2022-08-19T22:25:31.986Z,12.98
2022-08-19T22:28:27.685Z,19.70
2022-08-19T22:30:56.429Z,13.45
2022-08-19T22:33:26.484Z,12.65
2022-08-19T22:35:54.754Z,16.45
2022-08-19T22:38:23.175Z,17.40
2022-08-19T22:41:10.342Z,10.73
2022-08-19T22:43:38.689Z,19.13
2022-08-19T22:46:17.231Z,16.23
2022-08-19T22:48:47.610Z,13.73
2022-08-19T22:54:39.343Z,13.63
2022-08-19T22:57:07.584Z,11.93
2022-08-19T22:59:35.816Z,11.07
2022-08-19T23:02:04.945Z,10.10
2022-08-19T23:04:33.339Z,13.93
2022-08-19T23:07:02.014Z,15.63
2022-08-19T23:09:48.596Z,18.13
2022-08-19T23:15:35.549Z,11.70
2022-08-19T23:18:05.860Z,16.23
2022-08-19T23:20:38.935Z,12.95
2022-08-19T23:23:10.105Z,11.90
2022-08-19T23:25:39.336Z,14.50
2022-08-19T23:28:26.293Z,12.15
2022-08-19T23:30:54.905Z,13.13
2022-08-19T23:33:44.362Z,15.73
2022-08-19T23:36:18.466Z,15.60
2022-08-19T23:38:48.734Z,14.32
2022-08-19T23:41:19.149Z,15.73
2022-08-19T23:43:48.030Z,13.57
2022-08-19T23:46:27.998Z,16.80
2022-08-19T23:48:57.680Z,14.70
2022-08-19T23:51:26.901Z,20.17
2022-08-19T23:53:55.054Z,15.10
2022-08-19T23:56:23.276Z,12.77
2022-08-19T23:59:28.117Z,13.30
